EFTP/TMP METAR and TAF weather

Enter ICAO airport designator
Station Type Date Time Source
EFTP METAR 2018/06/25 17:20 UTC NOAA

EFTP 251720Z AUTO VRB02KT 9999 OVC044 18/12 Q1016


Station Type Date Time Source
EFTP Decoded METAR 2018/06/25 17:20 UTC NOAA

Tampere / Pirkkala, Finland (EFTP) 61-25N 023-35E 112M
Jun 25, 2018 - 01:20 PM EDT / 2018.06.25 1720 UTC
Wind: Variable at 2 MPH (2 KT):0
Visibility: greater than 7 mile(s):0
Sky conditions: overcast
Temperature: 64 F (18 C)
Dew Point: 53 F (12 C)
Relative Humidity: 67%
Pressure (altimeter): 30.00 in. Hg (1016 hPa)
ob: EFTP 251720Z AUTO VRB02KT 9999 OVC044 18/12 Q1016
cycle: 17

Station Type Date Time Source
EFTP TAF 2018/06/25 15:45 UTC NOAA

TAF EFTP 251427Z 2515/2615 VRB02KT 9999 BKN040
BECMG 2611/2613 25010KT


Example: see airport list